^^
Saratoga-Weather Station Historical Data
Daily Summary for December 25, 2020 Units:  English    Metric   Both
Daily Weekly Monthly Yearly Custom
  High: Low: Average:
Temperature: 41.2 °F 36.1 °F 38.3 °F
Dew Point: 36 °F 32.2 °F 33.8 °F
Humidity: 91% 71% 84%
Wind Speed: 11mph 0mph 3.3mph
Wind Gust: 13mph - -
Wind- - West
Pressure: 30.3 in 30 in -
Precipitation: 0 in    
Historical Graphs
 
 
Tabular Data for December 25, 2020
Time Temperature Dew Point Pressure Wind Wind Speed Wind Gust Humidity Rainfall Rate (Hourly) solar
00:01 37.4 °F 35.1 °F 30 in WNW 2.9 mph 4 mph 91% 0 in 0 W/m2
00:06 37.4 °F 35.1 °F 30 in West 2.9 mph 6 mph 91% 0 in 0 W/m2
00:11 37.6 °F 35.2 °F 30 in WNW 2 mph 4 mph 91% 0 in 0 W/m2
00:16 37.4 °F 35.1 °F 30 in WSW 2 mph 4 mph 91% 0 in 0 W/m2
00:21 37.2 °F 34.5 °F 30 in West 6 mph 6 mph 90% 0 in 0 W/m2
00:26 37.2 °F 34.5 °F 30 in West 8.1 mph 8 mph 90% 0 in 0 W/m2
00:31 37.2 °F 34.5 °F 30 in WNW 2.9 mph 5 mph 90% 0 in 0 W/m2
00:36 37.2 °F 34.5 °F 30 in West 2 mph 4 mph 90% 0 in 0 W/m2
00:41 37 °F 34.7 °F 30 in WNW 2 mph 5 mph 91% 0 in 0 W/m2
00:46 37.2 °F 34.9 °F 30 in NW 2.9 mph 3 mph 91% 0 in 0 W/m2
00:51 37.2 °F 34.9 °F 30 in WSW 2 mph 5 mph 91% 0 in 0 W/m2
00:56 37.2 °F 34.9 °F 30 in West 0.9 mph 2 mph 91% 0 in 0 W/m2
01:01 37 °F 34.7 °F 30 in WNW 2 mph 4 mph 91% 0 in 0 W/m2
01:06 37 °F 34.7 °F 30 in NW 2 mph 8 mph 91% 0 in 0 W/m2
01:11 37.2 °F 34.9 °F 30 in Calm   4 mph 91% 0 in 0 W/m2
01:16 37.2 °F 34.9 °F 30 in SW 2.9 mph 4 mph 91% 0 in 0 W/m2
01:21 37.2 °F 34.9 °F 30 in WNW 2 mph 4 mph 91% 0 in 0 W/m2
01:26 37.6 °F 35.2 °F 30 in WNW 2.9 mph 5 mph 91% 0 in 0 W/m2
01:31 37.6 °F 35.2 °F 30 in WNW 4 mph 5 mph 91% 0 in 0 W/m2
01:36 37.6 °F 35.2 °F 30 in West 6 mph 7 mph 91% 0 in 0 W/m2
01:41 37.6 °F 35.2 °F 30 in West 4 mph 7 mph 91% 0 in 0 W/m2
01:46 37.6 °F 35.2 °F 30.1 in WNW 8.9 mph 10 mph 91% 0 in 0 W/m2
01:51 37.6 °F 35.2 °F 30.1 in WNW 4.9 mph 7 mph 91% 0 in 0 W/m2
01:56 37.8 °F 35.4 °F 30.1 in WNW 4 mph 9 mph 91% 0 in 0 W/m2
02:01 37.8 °F 35.4 °F 30.1 in WSW 2.9 mph 9 mph 91% 0 in 0 W/m2
02:06 37.9 °F 35.6 °F 30.1 in West 4 mph 10 mph 91% 0 in 0 W/m2
02:11 37.9 °F 35.6 °F 30.1 in West 2.9 mph 10 mph 91% 0 in 0 W/m2
02:16 37.9 °F 35.6 °F 30.1 in WSW 4.9 mph 8 mph 91% 0 in 0 W/m2
02:21 38.1 °F 35.8 °F 30.1 in West 4 mph 5 mph 91% 0 in 0 W/m2
02:26 38.1 °F 35.8 °F 30.1 in WNW 6.9 mph 8 mph 91% 0 in 0 W/m2
02:31 38.1 °F 35.8 °F 30.1 in NW 4.9 mph 7 mph 91% 0 in 0 W/m2
02:36 38.1 °F 35.4 °F 30.1 in West 2.9 mph 9 mph 90% 0 in 0 W/m2
02:41 37.9 °F 35.6 °F 30.1 in West 2.9 mph 8 mph 91% 0 in 0 W/m2
02:46 37.9 °F 35.6 °F 30.1 in West 2.9 mph 7 mph 91% 0 in 0 W/m2
02:51 37.9 °F 35.6 °F 30.1 in WSW 4 mph 6 mph 91% 0 in 0 W/m2
02:56 37.9 °F 35.6 °F 30.1 in WNW 4 mph 8 mph 91% 0 in 0 W/m2
03:01 38.1 °F 35.8 °F 30.1 in WNW 2.9 mph 8 mph 91% 0 in 0 W/m2
03:07 38.1 °F 35.8 °F 30.1 in WSW 4 mph 8 mph 91% 0 in 0 W/m2
03:12 37.9 °F 35.6 °F 30.1 in West 2 mph 8 mph 91% 0 in 0 W/m2
03:17 37.9 °F 35.6 °F 30.1 in West 6 mph 8 mph 91% 0 in 0 W/m2
03:22 37.8 °F 35.4 °F 30.1 in West 2 mph 4 mph 91% 0 in 0 W/m2
03:27 37.8 °F 35.4 °F 30.1 in West 2 mph 8 mph 91% 0 in 0 W/m2
03:32 37.8 °F 35.4 °F 30.1 in West 2.9 mph 6 mph 91% 0 in 0 W/m2
03:37 37.8 °F 35.4 °F 30.1 in NW 2 mph 7 mph 91% 0 in 0 W/m2
03:42 37.9 °F 35.6 °F 30.1 in West 2.9 mph 7 mph 91% 0 in 0 W/m2
03:47 38.1 °F 35.8 °F 30.1 in West 6 mph 7 mph 91% 0 in 0 W/m2
03:52 38.3 °F 36 °F 30.1 in West 4 mph 8 mph 91% 0 in 0 W/m2
03:57 38.5 °F 35.8 °F 30.1 in WSW 2.9 mph 7 mph 90% 0 in 0 W/m2
04:02 38.5 °F 35.8 °F 30.1 in WSW 4 mph 5 mph 90% 0 in 0 W/m2
04:07 38.5 °F 35.8 °F 30.1 in WSW 2.9 mph 8 mph 90% 0 in 0 W/m2
04:12 38.7 °F 35.8 °F 30.1 in West 4 mph 7 mph 89% 0 in 0 W/m2
04:17 38.7 °F 35.8 °F 30.1 in WNW 2.9 mph 6 mph 89% 0 in 0 W/m2
04:22 38.7 °F 35.8 °F 30.1 in West 2.9 mph 6 mph 89% 0 in 0 W/m2
04:27 38.5 °F 35.6 °F 30.1 in West 2.9 mph 6 mph 89% 0 in 0 W/m2
04:32 38.5 °F 35.6 °F 30.1 in WNW 2.9 mph 4 mph 89% 0 in 0 W/m2
04:37 38.5 °F 35.6 °F 30.1 in NW 2 mph 6 mph 89% 0 in 0 W/m2
04:42 38.5 °F 35.6 °F 30.1 in WSW 6.9 mph 7 mph 89% 0 in 0 W/m2
04:47 38.5 °F 35.6 °F 30.1 in WNW 2.9 mph 4 mph 89% 0 in 0 W/m2
04:52 38.3 °F 35.6 °F 30.1 in NW 2.9 mph 6 mph 90% 0 in 0 W/m2
04:57 38.3 °F 35.6 °F 30.1 in West 2 mph 3 mph 90% 0 in 0 W/m2
05:02 38.1 °F 35.4 °F 30.1 in Calm   2 mph 90% 0 in 0 W/m2
05:07 38.1 °F 35.4 °F 30.1 in West 2 mph 3 mph 90% 0 in 0 W/m2
05:12 38.1 °F 35.4 °F 30.1 in NW 4 mph 10 mph 90% 0 in 0 W/m2
05:17 38.1 °F 35.4 °F 30.1 in NW 2.9 mph 4 mph 90% 0 in 0 W/m2
05:22 38.3 °F 35.6 °F 30.1 in West 2.9 mph 10 mph 90% 0 in 0 W/m2
05:27 38.5 °F 35.8 °F 30.1 in WSW 2.9 mph 6 mph 90% 0 in 0 W/m2
05:32 38.5 °F 35.8 °F 30.1 in WNW 2.9 mph 3 mph 90% 0 in 0 W/m2
05:37 38.5 °F 35.8 °F 30.1 in WNW 2.9 mph 5 mph 90% 0 in 0 W/m2
05:42 38.5 °F 35.8 °F 30.1 in WNW 8.9 mph 9 mph 90% 0 in 0 W/m2
05:47 38.7 °F 35.8 °F 30.1 in West 4 mph 6 mph 89% 0 in 0 W/m2
05:52 38.7 °F 35.8 °F 30.1 in WNW 4 mph 6 mph 89% 0 in 0 W/m2
05:57 38.7 °F 35.8 °F 30.1 in WNW 2.9 mph 4 mph 89% 0 in 0 W/m2
06:02 38.8 °F 35.6 °F 30.1 in WNW 2 mph 4 mph 88% 0 in 0 W/m2
06:07 38.8 °F 35.6 °F 30.1 in WNW 2.9 mph 6 mph 88% 0 in 0 W/m2
06:12 38.8 °F 35.6 °F 30.1 in NW 2.9 mph 4 mph 88% 0 in 0 W/m2
06:17 38.8 °F 35.2 °F 30.1 in NW 6 mph 7 mph 87% 0 in 0 W/m2
06:22 38.8 °F 35.1 °F 30.1 in West 4 mph 8 mph 86% 0 in 0 W/m2
06:27 39 °F 35.2 °F 30.1 in WNW 6.9 mph 8 mph 86% 0 in 0 W/m2
06:32 39 °F 35.2 °F 30.1 in WNW 4 mph 5 mph 86% 0 in 0 W/m2
06:37 38.8 °F 35.1 °F 30.1 in NW 2.9 mph 9 mph 86% 0 in 0 W/m2
06:42 38.8 °F 35.1 °F 30.1 in West 2 mph 8 mph 86% 0 in 0 W/m2
06:47 38.8 °F 34.7 °F 30.1 in NW 4 mph 9 mph 85% 0 in 0 W/m2
06:52 38.8 °F 34.7 °F 30.1 in NW 4.9 mph 8 mph 85% 0 in 0 W/m2
06:57 38.8 °F 34.7 °F 30.1 in WNW 4 mph 8 mph 85% 0 in 0 W/m2
07:02 38.7 °F 34.5 °F 30.1 in North 2 mph 7 mph 85% 0 in 0 W/m2
07:07 38.7 °F 34.5 °F 30.1 in NW 2.9 mph 7 mph 85% 0 in 0 W/m2
07:12 38.5 °F 34.3 °F 30.1 in NNW 8.1 mph 10 mph 85% 0 in 0 W/m2
07:17 38.5 °F 34.3 °F 30.1 in WNW 6.9 mph 7 mph 85% 0 in 0 W/m2
07:22 38.5 °F 34.3 °F 30.1 in NW 2.9 mph 7 mph 85% 0 in 0 W/m2
07:27 38.3 °F 34.2 °F 30.1 in WNW 2 mph 6 mph 85% 0 in 0 W/m2
07:32 38.1 °F 34 °F 30.2 in West 6.9 mph 9 mph 85% 0 in 0 W/m2
07:37 37.9 °F 33.8 °F 30.2 in WNW 2 mph 5 mph 85% 0 in 0 W/m2
07:42 37.9 °F 33.6 °F 30.2 in WSW 2 mph 7 mph 84% 0 in 0 W/m2
07:47 37.8 °F 33.4 °F 30.2 in NNW 2 mph 4 mph 84% 0 in 0 W/m2
07:52 37.8 °F 33.4 °F 30.2 in NNW 2 mph 4 mph 84% 0 in 0 W/m2
07:57 37.8 °F 33.4 °F 30.2 in NW 2.9 mph 5 mph 84% 0 in 0 W/m2
08:02 37.6 °F 33.3 °F 30.2 in NW 2 mph 4 mph 84% 0 in 0 W/m2
08:07 37.6 °F 33.3 °F 30.2 in WNW 2.9 mph 6 mph 84% 0 in 0 W/m2
08:12 37.2 °F 32.9 °F 30.2 in NW 2.9 mph 8 mph 84% 0 in 0 W/m2
08:17 37.2 °F 32.9 °F 30.2 in West 4 mph 6 mph 84% 0 in 0 W/m2
08:22 37.2 °F 32.9 °F 30.2 in WNW 0.9 mph 3 mph 84% 0 in 0 W/m2
08:27 37.2 °F 32.9 °F 30.2 in West 2.9 mph 5 mph 84% 0 in 0 W/m2
08:32 37 °F 32.9 °F 30.2 in WNW 2.9 mph 6 mph 85% 0 in 0 W/m2
08:37 37 °F 32.9 °F 30.2 in WNW 2.9 mph 7 mph 85% 0 in 5 W/m2
08:43 37 °F 32.9 °F 30.2 in WNW 2 mph 7 mph 85% 0 in 5 W/m2
08:48 37.2 °F 33.1 °F 30.2 in NW 2.9 mph 11 mph 85% 0 in 7 W/m2
08:53 37.4 °F 33.1 °F 30.2 in WNW 4 mph 6 mph 84% 0 in 9 W/m2
08:58 37.4 °F 33.1 °F 30.2 in West 4 mph 7 mph 84% 0 in 11 W/m2
09:03 37.6 °F 33.3 °F 30.2 in WNW 2.9 mph 8 mph 84% 0 in 11 W/m2
09:08 37.4 °F 33.1 °F 30.2 in WNW 2.9 mph 4 mph 84% 0 in 11 W/m2
09:13 37.2 °F 32.9 °F 30.2 in West 2.9 mph 6 mph 84% 0 in 12 W/m2
09:18 37.2 °F 32.9 °F 30.2 in NW 2 mph 7 mph 84% 0 in 12 W/m2
09:23 37.2 °F 32.9 °F 30.2 in WNW 0.9 mph 7 mph 84% 0 in 14 W/m2
09:28 37.2 °F 32.9 °F 30.2 in West 2 mph 6 mph 84% 0 in 21 W/m2
09:33 37 °F 32.7 °F 30.2 in WNW 0.9 mph 7 mph 84% 0 in 19 W/m2
09:38 37 °F 32.7 °F 30.2 in WNW 0.9 mph 3 mph 84% 0 in 21 W/m2
09:43 36.9 °F 32.5 °F 30.2 in WNW 2.9 mph 6 mph 84% 0 in 23 W/m2
09:48 36.9 °F 32.5 °F 30.2 in WNW 2 mph 4 mph 84% 0 in 26 W/m2
09:53 36.9 °F 32.7 °F 30.2 in West 2 mph 4 mph 85% 0 in 32 W/m2
09:58 36.9 °F 32.7 °F 30.2 in NNW 2.9 mph 3 mph 85% 0 in 33 W/m2
10:03 37 °F 32.9 °F 30.2 in Calm   4 mph 85% 0 in 32 W/m2
10:08 37 °F 32.7 °F 30.2 in WNW 6 mph 6 mph 84% 0 in 30 W/m2
10:13 37 °F 32.7 °F 30.2 in NE 4.9 mph 7 mph 84% 0 in 30 W/m2
10:18 37 °F 32.7 °F 30.2 in WNW 4.9 mph 6 mph 84% 0 in 28 W/m2
10:23 37.2 °F 32.5 °F 30.2 in NNW 2.9 mph 8 mph 83% 0 in 28 W/m2
10:28 37.4 °F 32.7 °F 30.2 in West 4 mph 8 mph 83% 0 in 30 W/m2
10:33 37.6 °F 32.9 °F 30.2 in West 4 mph 7 mph 83% 0 in 30 W/m2
10:38 37.6 °F 32.9 °F 30.2 in NW 2 mph 5 mph 83% 0 in 30 W/m2
10:43 37.6 °F 32.5 °F 30.2 in WNW 2.9 mph 5 mph 82% 0 in 28 W/m2
10:48 37.4 °F 32.4 °F 30.2 in North 2.9 mph 9 mph 82% 0 in 28 W/m2
10:53 37.4 °F 32.4 °F 30.2 in NW 0.9 mph 3 mph 82% 0 in 26 W/m2
10:58 37.4 °F 32.4 °F 30.2 in ENE 2 mph 9 mph 82% 0 in 28 W/m2
11:03 37.4 °F 32.4 °F 30.2 in NNW 2.9 mph 4 mph 82% 0 in 30 W/m2
11:08 37.4 °F 32.4 °F 30.2 in NNW 2.9 mph 4 mph 82% 0 in 28 W/m2
11:13 37.6 °F 32.4 °F 30.2 in WNW 8.9 mph 11 mph 81% 0 in 28 W/m2
11:18 37.6 °F 32.4 °F 30.2 in West 2.9 mph 6 mph 81% 0 in 26 W/m2
11:23 37.8 °F 32.5 °F 30.2 in WNW 11 mph 11 mph 81% 0 in 26 W/m2
11:28 37.8 °F 32.5 °F 30.2 in NW 2 mph 7 mph 81% 0 in 28 W/m2
11:33 37.9 °F 32.4 °F 30.2 in WNW 2 mph 4 mph 80% 0 in 28 W/m2
11:38 38.1 °F 32.5 °F 30.2 in NW 0.9 mph 7 mph 80% 0 in 28 W/m2
11:43 38.3 °F 32.7 °F 30.2 in NE 2.9 mph 8 mph 80% 0 in 39 W/m2
11:48 38.5 °F 32.5 °F 30.2 in WSW 2.9 mph 8 mph 79% 0 in 30 W/m2
11:53 38.7 °F 32.7 °F 30.2 in NNW 4 mph 6 mph 79% 0 in 32 W/m2
11:58 38.8 °F 32.9 °F 30.2 in WNW 4.9 mph 9 mph 79% 0 in 54 W/m2
12:03 39.2 °F 32.9 °F 30.2 in NW 8.9 mph 9 mph 78% 0 in 67 W/m2
12:08 39.4 °F 33.1 °F 30.2 in WSW 2.9 mph 7 mph 78% 0 in 111 W/m2
12:13 39.6 °F 33.3 °F 30.2 in NE 2 mph 9 mph 78% 0 in 114 W/m2
12:18 39.6 °F 32.9 °F 30.2 in WNW 4.9 mph 9 mph 77% 0 in 49 W/m2
12:23 39.6 °F 32.5 °F 30.2 in North 4 mph 9 mph 76% 0 in 51 W/m2
12:28 39.6 °F 32.9 °F 30.2 in WNW 2 mph 5 mph 77% 0 in 39 W/m2
12:33 39.7 °F 33.1 °F 30.2 in ENE 4.9 mph 8 mph 77% 0 in 67 W/m2
12:38 39.7 °F 33.4 °F 30.2 in North 2.9 mph 4 mph 78% 0 in 79 W/m2
12:43 39.7 °F 33.1 °F 30.2 in North 2.9 mph 8 mph 77% 0 in 77 W/m2
12:48 39.9 °F 33.6 °F 30.2 in WNW 4 mph 8 mph 78% 0 in 105 W/m2
12:53 40.1 °F 34.2 °F 30.2 in West 6.9 mph 8 mph 79% 0 in 100 W/m2
12:58 40.3 °F 34 °F 30.2 in NNW 4.9 mph 10 mph 78% 0 in 86 W/m2
13:03 40.5 °F 34.5 °F 30.2 in West 2 mph 4 mph 79% 0 in 56 W/m2
13:08 40.5 °F 34.5 °F 30.2 in WNW 2 mph 8 mph 79% 0 in 60 W/m2
13:13 40.5 °F 34.2 °F 30.2 in NNW 8.1 mph 10 mph 78% 0 in 51 W/m2
13:18 40.3 °F 33.6 °F 30.2 in NNW 4 mph 13 mph 77% 0 in 67 W/m2
13:23 40.3 °F 34 °F 30.2 in East 0.9 mph 10 mph 78% 0 in 76 W/m2
13:28 40.1 °F 33.8 °F 30.2 in North 4 mph 5 mph 78% 0 in 70 W/m2
13:33 40.1 °F 34.2 °F 30.2 in WNW 4 mph 10 mph 79% 0 in 67 W/m2
13:38 39.9 °F 33.6 °F 30.2 in ESE 2 mph 4 mph 78% 0 in 72 W/m2
13:43 39.9 °F 33.6 °F 30.2 in NE 0.9 mph 6 mph 78% 0 in 67 W/m2
13:48 39.9 °F 33.6 °F 30.2 in West 2.9 mph 4 mph 78% 0 in 49 W/m2
13:53 40.1 °F 33.4 °F 30.2 in West 6 mph 6 mph 77% 0 in 32 W/m2
13:58 39.9 °F 32.9 °F 30.2 in WNW 4 mph 8 mph 76% 0 in 32 W/m2
14:03 40.1 °F 33.1 °F 30.2 in NW 2 mph 8 mph 76% 0 in 32 W/m2
14:08 40.1 °F 32.9 °F 30.2 in West 8.9 mph 11 mph 75% 0 in 37 W/m2
14:13 40.3 °F 33.1 °F 30.2 in NW 0.9 mph 11 mph 75% 0 in 35 W/m2
14:18 40.3 °F 32.7 °F 30.2 in NW 2.9 mph 8 mph 74% 0 in 28 W/m2
14:23 40.3 °F 32.4 °F 30.2 in West 6 mph 11 mph 73% 0 in 26 W/m2
14:28 40.5 °F 32.5 °F 30.2 in West 2 mph 6 mph 73% 0 in 28 W/m2
14:33 40.5 °F 32.9 °F 30.2 in North 2.9 mph 5 mph 74% 0 in 28 W/m2
14:38 40.5 °F 32.2 °F 30.2 in WNW 2.9 mph 5 mph 72% 0 in 28 W/m2
14:43 40.5 °F 32.2 °F 30.2 in ESE 2.9 mph 9 mph 72% 0 in 39 W/m2
14:48 40.5 °F 32.2 °F 30.2 in SW 4 mph 5 mph 72% 0 in 49 W/m2
14:53 40.6 °F 32.7 °F 30.2 in North 6.9 mph 9 mph 73% 0 in 35 W/m2
14:58 40.6 °F 32.4 °F 30.2 in East 0.9 mph 5 mph 72% 0 in 79 W/m2
15:03 40.6 °F 32.7 °F 30.2 in North 0.9 mph 4 mph 73% 0 in 69 W/m2
15:08 40.8 °F 32.9 °F 30.2 in WNW 2 mph 4 mph 73% 0 in 54 W/m2
15:13 41 °F 32.7 °F 30.2 in North 2 mph 4 mph 72% 0 in 46 W/m2
15:18 41 °F 32.7 °F 30.2 in NNE 2.9 mph 5 mph 72% 0 in 40 W/m2
15:23 41.2 °F 32.9 °F 30.2 in NW 2 mph 3 mph 72% 0 in 33 W/m2
15:29 41 °F 32.4 °F 30.2 in NW 0.9 mph 11 mph 71% 0 in 35 W/m2
15:34 41.2 °F 33.3 °F 30.2 in NNE 2 mph 2 mph 73% 0 in 37 W/m2
15:39 41 °F 33.1 °F 30.2 in West 2 mph 11 mph 73% 0 in 23 W/m2
15:44 40.8 °F 32.5 °F 30.2 in WNW 4 mph 6 mph 72% 0 in 19 W/m2
15:49 40.8 °F 32.2 °F 30.2 in NW 2.9 mph 4 mph 71% 0 in 18 W/m2
15:54 40.6 °F 32.4 °F 30.2 in WNW 2.9 mph 4 mph 72% 0 in 18 W/m2
15:59 40.5 °F 32.5 °F 30.2 in NW 6 mph 8 mph 73% 0 in 14 W/m2
16:04 40.3 °F 32.7 °F 30.2 in West 6 mph 10 mph 74% 0 in 12 W/m2
16:09 40.1 °F 32.5 °F 30.2 in WNW 4 mph 6 mph 74% 0 in 12 W/m2
16:14 39.9 °F 32.7 °F 30.2 in WNW 2.9 mph 7 mph 75% 0 in 11 W/m2
16:19 39.7 °F 32.7 °F 30.2 in WNW 4.9 mph 11 mph 76% 0 in 11 W/m2
16:24 39.6 °F 32.5 °F 30.2 in NW 8.1 mph 11 mph 76% 0 in 9 W/m2
16:29 39.6 °F 32.9 °F 30.2 in West 6 mph 10 mph 77% 0 in 7 W/m2
16:34 39.4 °F 32.7 °F 30.2 in West 8.9 mph 9 mph 77% 0 in 5 W/m2
16:39 39.4 °F 32.7 °F 30.2 in NW 6 mph 9 mph 77% 0 in 5 W/m2
16:44 39.2 °F 32.9 °F 30.2 in West 4 mph 10 mph 78% 0 in 0 W/m2
16:49 39 °F 32.7 °F 30.2 in West 4 mph 7 mph 78% 0 in 0 W/m2
16:54 38.8 °F 32.5 °F 30.2 in WNW 2.9 mph 10 mph 78% 0 in 0 W/m2
16:59 38.7 °F 32.7 °F 30.2 in West 2.9 mph 4 mph 79% 0 in 0 W/m2
17:04 38.5 °F 32.9 °F 30.2 in WNW 2 mph 3 mph 80% 0 in 0 W/m2
17:09 38.1 °F 32.5 °F 30.2 in Calm   2 mph 80% 0 in 0 W/m2
17:14 37.9 °F 32.7 °F 30.2 in Calm   2 mph 81% 0 in 0 W/m2
17:19 37.9 °F 32.7 °F 30.2 in WNW 0.9 mph 4 mph 81% 0 in 0 W/m2
17:24 37.9 °F 32.9 °F 30.2 in WNW 2 mph 2 mph 82% 0 in 0 W/m2
17:29 37.8 °F 32.7 °F 30.3 in West 0.9 mph 1 mph 82% 0 in 0 W/m2
17:34 37.8 °F 33.1 °F 30.3 in Calm   1 mph 83% 0 in 0 W/m2
17:39 37.8 °F 33.1 °F 30.3 in West 0.9 mph 2 mph 83% 0 in 0 W/m2
17:44 37.8 °F 33.1 °F 30.3 in West 6 mph 7 mph 83% 0 in 0 W/m2
17:49 37.8 °F 33.1 °F 30.3 in WSW 2.9 mph 4 mph 83% 0 in 0 W/m2
17:54 37.9 °F 33.3 °F 30.3 in NW 2 mph 9 mph 83% 0 in 0 W/m2
17:59 37.9 °F 33.3 °F 30.2 in West 2 mph 6 mph 83% 0 in 0 W/m2
18:04 38.1 °F 33.1 °F 30.2 in WNW 2.9 mph 9 mph 82% 0 in 0 W/m2
18:09 38.1 °F 33.1 °F 30.2 in West 6 mph 9 mph 82% 0 in 0 W/m2
18:14 38.3 °F 32.9 °F 30.2 in WNW 4 mph 7 mph 81% 0 in 0 W/m2
18:19 38.3 °F 32.9 °F 30.2 in WNW 2 mph 8 mph 81% 0 in 0 W/m2
18:24 38.1 °F 32.7 °F 30.2 in West 2 mph 3 mph 81% 0 in 0 W/m2
18:29 37.9 °F 32.7 °F 30.2 in West 2 mph 5 mph 81% 0 in 0 W/m2
18:34 37.8 °F 32.7 °F 30.2 in WNW 0.9 mph 3 mph 82% 0 in 0 W/m2
18:39 37.4 °F 32.7 °F 30.2 in West 2.9 mph 4 mph 83% 0 in 0 W/m2
18:44 37 °F 32.4 °F 30.3 in West 2 mph 3 mph 83% 0 in 0 W/m2
18:49 36.9 °F 32.2 °F 30.3 in West 2.9 mph 4 mph 83% 0 in 0 W/m2
18:54 36.7 °F 32.4 °F 30.3 in WSW 2.9 mph 4 mph 84% 0 in 0 W/m2
18:59 36.7 °F 32.4 °F 30.3 in West 2 mph 4 mph 84% 0 in 0 W/m2
19:04 36.7 °F 32.4 °F 30.3 in West 2.9 mph 4 mph 84% 0 in 0 W/m2
19:09 36.5 °F 32.4 °F 30.3 in WNW 2.9 mph 6 mph 85% 0 in 0 W/m2
19:14 36.5 °F 32.4 °F 30.3 in West 2.9 mph 4 mph 85% 0 in 0 W/m2
19:19 36.7 °F 32.5 °F 30.3 in West 2.9 mph 4 mph 85% 0 in 0 W/m2
19:24 36.7 °F 32.5 °F 30.3 in WSW 6.9 mph 7 mph 85% 0 in 0 W/m2
19:29 36.7 °F 32.5 °F 30.3 in WNW 4 mph 4 mph 85% 0 in 0 W/m2
19:34 36.7 °F 32.5 °F 30.3 in WSW 4 mph 7 mph 85% 0 in 0 W/m2
19:39 36.7 °F 32.5 °F 30.3 in West 4 mph 4 mph 85% 0 in 0 W/m2
19:44 36.9 °F 32.7 °F 30.3 in West 2 mph 7 mph 85% 0 in 0 W/m2
19:49 36.7 °F 32.5 °F 30.3 in West 0.9 mph 3 mph 85% 0 in 0 W/m2
19:54 36.7 °F 32.5 °F 30.3 in WNW 2.9 mph 7 mph 85% 0 in 0 W/m2
19:59 36.5 °F 32.4 °F 30.3 in West 0.9 mph 3 mph 85% 0 in 0 W/m2
20:04 36.3 °F 32.2 °F 30.3 in West 2 mph 4 mph 85% 0 in 0 W/m2
20:09 36.1 °F 32.4 °F 30.3 in Calm   3 mph 86% 0 in 0 W/m2
Juneau County Weather
Compliments of Weather Underground - 2 mb